Time;durP1;ratioP1;P1;durP2;ratioP2;P2;SDS_P1;SDS_P2;PMS_P1;PMS_P2;Temp;Humidity;BMP_temperature;BMP_pressure;BME280_temperature;BME280_humidity;BME280_pressure;Samples;Min_cycle;Max_cycle;Signal;HPM_P1;HPM_P2
2022/05/17 00:01:33;;;;;;;19.50;17.67;;;15.60;99.90;;;;;;4935053;29;20454;-75
2022/05/17 00:04:01;;;;;;;17.40;15.90;;;15.60;99.90;;;;;;4935253;29;20529;-75
2022/05/17 00:06:29;;;;;;;19.27;17.30;;;15.60;99.90;;;;;;4935306;29;20485;-75
2022/05/17 00:08:57;;;;;;;16.60;15.60;;;15.60;99.90;;;;;;4934961;29;20460;-75
2022/05/17 00:11:24;;;;;;;17.57;16.03;;;15.50;99.90;;;;;;4935282;29;20461;-75
2022/05/17 00:13:51;;;;;;;17.77;16.50;;;15.50;99.90;;;;;;4934983;29;20986;-75
2022/05/17 00:16:18;;;;;;;18.40;17.00;;;15.50;99.90;;;;;;4934958;29;20446;-75
2022/05/17 00:18:45;;;;;;;18.07;16.87;;;15.50;99.90;;;;;;4934767;29;20454;-75
2022/05/17 00:21:13;;;;;;;18.57;17.37;;;15.40;99.90;;;;;;4934934;29;20508;-76
2022/05/17 00:23:41;;;;;;;17.53;16.23;;;15.40;99.90;;;;;;4935135;29;20461;-75
2022/05/17 00:26:09;;;;;;;18.20;16.80;;;15.40;99.90;;;;;;4934583;29;20485;-77
2022/05/17 00:28:36;;;;;;;18.50;17.17;;;15.40;99.90;;;;;;4934666;29;20990;-76
2022/05/17 00:31:06;;;;;;;19.07;17.40;;;15.40;99.90;;;;;;4934432;29;20899;-76
2022/05/17 00:33:33;;;;;;;17.50;16.20;;;15.40;99.90;;;;;;4934516;29;20450;-76
2022/05/17 00:36:00;;;;;;;19.53;18.00;;;15.40;99.90;;;;;;4934154;29;21006;-76
2022/05/17 00:38:28;;;;;;;18.40;17.10;;;15.30;99.90;;;;;;4934692;29;20453;-75
2022/05/17 00:40:55;;;;;;;18.10;16.90;;;15.20;99.90;;;;;;4934680;29;20453;-76
2022/05/17 00:43:30;;;;;;;19.20;17.83;;;15.20;99.90;;;;;;4934709;29;20457;-76
2022/05/17 00:46:01;;;;;;;18.83;17.53;;;15.20;99.90;;;;;;4934334;29;20496;-75
2022/05/17 00:48:28;;;;;;;19.87;18.43;;;15.20;99.90;;;;;;4934447;29;20457;-75
2022/05/17 00:50:55;;;;;;;20.00;18.27;;;15.10;99.90;;;;;;4934404;29;20462;-75
2022/05/17 00:53:26;;;;;;;19.57;17.90;;;15.20;99.90;;;;;;4933710;29;20453;-75
2022/05/17 00:55:56;;;;;;;18.93;17.53;;;15.10;99.90;;;;;;4934266;29;20457;-76
2022/05/17 00:58:28;;;;;;;18.43;17.13;;;15.10;99.90;;;;;;4934161;29;20461;-75
2022/05/17 01:01:02;;;;;;;19.03;17.53;;;15.10;99.90;;;;;;4934356;29;20453;-75
2022/05/17 01:03:31;;;;;;;20.20;18.23;;;15.00;99.90;;;;;;4934232;29;20456;-75
2022/05/17 01:05:58;;;;;;;19.93;18.30;;;14.90;99.90;;;;;;4934268;29;20496;-76
2022/05/17 01:08:25;;;;;;;20.13;18.57;;;14.90;99.90;;;;;;4933876;29;20457;-75
2022/05/17 01:10:53;;;;;;;18.60;17.20;;;15.00;99.90;;;;;;4934179;29;20481;-75
2022/05/17 01:16:07;;;;;;;20.87;19.10;;;14.90;99.90;;;;;;4933939;29;20429;-76
2022/05/17 01:18:35;;;;;;;21.00;19.00;;;14.90;99.90;;;;;;4934134;29;20456;-75
2022/05/17 01:21:03;;;;;;;20.17;18.63;;;14.90;99.90;;;;;;4933899;29;20461;-75
2022/05/17 01:23:31;;;;;;;21.47;19.63;;;14.90;99.90;;;;;;4933826;29;20476;-75
2022/05/17 04:32:20;;;;;;;25.17;23.13;;;13.90;99.90;;;;;;5664171;23;20287;-78
2022/05/17 04:34:47;;;;;;;28.33;26.00;;;14.00;99.90;;;;;;4944567;28;20468;-79
2022/05/17 04:37:13;;;;;;;31.87;28.67;;;14.10;99.90;;;;;;4934172;29;20465;-81
2022/05/17 04:39:40;;;;;;;31.73;29.00;;;14.40;99.90;;;;;;4946472;29;20862;-82
2022/05/17 04:42:08;;;;;;;29.97;27.37;;;14.70;99.90;;;;;;4951822;28;20503;-82
2022/05/17 04:44:35;;;;;;;28.13;25.63;;;15.00;99.90;;;;;;4952478;28;20517;-82
2022/05/17 04:47:02;;;;;;;25.93;23.93;;;15.30;99.90;;;;;;4952520;28;20480;-81
2022/05/17 04:49:30;;;;;;;23.37;21.57;;;15.50;99.90;;;;;;4952151;28;20814;-80
2022/05/17 04:51:57;;;;;;;21.23;19.30;;;15.70;99.90;;;;;;4951817;28;20804;-79
2022/05/17 04:54:24;;;;;;;19.13;17.93;;;15.80;99.90;;;;;;4951959;28;20449;-81
2022/05/17 04:56:50;;;;;;;20.80;19.20;;;16.00;99.90;;;;;;4952135;28;20441;-79
2022/05/17 04:59:17;;;;;;;22.10;19.37;;;16.30;99.90;;;;;;4951789;28;20448;-78
2022/05/17 05:01:44;;;;;;;21.37;20.00;;;16.50;99.90;;;;;;4952310;28;20452;-79
2022/05/17 05:04:11;;;;;;;21.40;19.90;;;16.60;99.90;;;;;;4967566;28;20461;-79
2022/05/17 05:06:39;;;;;;;23.17;20.63;;;16.60;99.90;;;;;;4968276;28;20488;-78
2022/05/17 05:09:07;;;;;;;20.57;19.13;;;16.60;99.90;;;;;;4970314;28;20597;-82
2022/05/17 05:11:34;;;;;;;19.30;17.70;;;16.60;99.90;;;;;;4967703;28;20448;-79
2022/05/17 05:14:01;;;;;;;19.53;18.23;;;16.90;99.90;;;;;;4954429;28;20559;-79
2022/05/17 05:16:27;;;;;;;19.93;18.10;;;17.10;99.90;;;;;;4953569;28;20452;-77
2022/05/17 05:18:54;;;;;;;18.10;16.57;;;17.30;99.90;;;;;;4952854;28;20460;-79
2022/05/17 05:21:21;;;;;;;18.13;16.80;;;17.30;99.90;;;;;;4952883;28;20453;-78
2022/05/17 05:23:50;;;;;;;18.43;16.93;;;17.30;99.90;;;;;;4953112;28;20463;-82
2022/05/17 05:26:16;;;;;;;17.50;15.93;;;17.70;99.90;;;;;;4953510;28;20484;-83
2022/05/17 05:28:44;;;;;;;17.00;15.63;;;17.90;99.90;;;;;;4953428;28;20456;-85
2022/05/17 05:31:12;;;;;;;17.80;16.40;;;18.10;99.90;;;;;;4953699;28;20484;-83
2022/05/17 05:33:40;;;;;;;18.67;16.97;;;18.30;99.90;;;;;;4952945;28;20568;-82
2022/05/17 05:36:08;;;;;;;18.40;17.20;;;18.40;99.90;;;;;;4953634;28;20456;-83
2022/05/17 05:38:35;;;;;;;18.83;17.50;;;18.90;99.90;;;;;;4953543;28;20460;-81
2022/05/17 05:41:03;;;;;;;19.50;18.20;;;19.10;99.90;;;;;;4929956;28;20485;-78
2022/05/17 05:43:30;;;;;;;20.10;18.60;;;19.20;99.90;;;;;;4914286;29;20455;-80
2022/05/17 05:45:57;;;;;;;20.53;18.60;;;19.50;99.90;;;;;;4914059;29;20496;-79
2022/05/17 05:48:23;;;;;;;20.53;18.73;;;19.60;99.90;;;;;;4914703;29;20454;-79
2022/05/17 05:50:53;;;;;;;19.20;17.43;;;19.50;99.90;;;;;;4914969;29;20830;-79
2022/05/17 05:53:20;;;;;;;20.40;18.60;;;19.50;99.90;;;;;;4914431;29;20546;-77
2022/05/17 05:55:51;;;;;;;21.27;19.27;;;19.60;99.90;;;;;;4914419;29;20804;-78
2022/05/17 05:58:19;;;;;;;18.83;17.43;;;19.90;99.90;;;;;;4914342;29;20576;-76
2022/05/17 06:00:46;;;;;;;17.00;15.80;;;20.00;99.90;;;;;;4915017;29;20915;-78
2022/05/17 06:03:13;;;;;;;17.80;16.40;;;20.10;99.90;;;;;;4914558;29;20545;-80
2022/05/17 06:05:39;;;;;;;17.23;15.70;;;20.30;99.90;;;;;;4914206;29;20465;-74
2022/05/17 06:08:07;;;;;;;16.50;15.40;;;20.60;99.90;;;;;;4913880;29;20497;-73
2022/05/17 06:10:33;;;;;;;15.30;14.30;;;20.90;99.90;;;;;;4914326;29;20463;-75
2022/05/17 06:13:00;;;;;;;16.37;15.13;;;20.50;99.90;;;;;;4914086;29;20451;-72
2022/05/17 06:15:28;;;;;;;17.40;15.80;;;20.10;99.90;;;;;;4910200;29;20732;-72
2022/05/17 06:17:55;;;;;;;15.70;14.60;;;20.00;99.90;;;;;;4912691;29;20786;-73
2022/05/17 06:20:21;;;;;;;15.07;13.73;;;20.10;99.90;;;;;;4913007;29;20459;-73
2022/05/17 06:22:48;;;;;;;16.70;15.07;;;20.50;99.90;;;;;;4913708;29;20458;-73
2022/05/17 06:25:15;;;;;;;15.47;14.47;;;20.80;99.90;;;;;;4913605;29;20458;-73
2022/05/17 06:27:41;;;;;;;16.23;14.93;;;21.10;99.90;;;;;;4913463;29;20493;-73
2022/05/17 06:30:10;;;;;;;15.70;14.53;;;21.50;99.90;;;;;;4913683;29;20534;-73
2022/05/17 06:32:38;;;;;;;15.07;13.93;;;21.80;99.90;;;;;;4913326;29;20482;-72
2022/05/17 06:35:05;;;;;;;15.63;14.60;;;22.00;99.90;;;;;;4913763;29;20853;-73
2022/05/17 06:37:32;;;;;;;15.97;15.07;;;21.70;99.90;;;;;;4913586;29;20450;-73
2022/05/17 06:39:59;;;;;;;16.10;14.90;;;21.60;99.90;;;;;;4913412;29;20480;-73
2022/05/17 06:42:27;;;;;;;16.77;15.47;;;21.60;99.90;;;;;;4913560;29;20466;-72
2022/05/17 06:44:54;;;;;;;15.87;14.77;;;21.90;99.90;;;;;;4913376;29;20469;-73
2022/05/17 06:47:21;;;;;;;15.53;14.63;;;21.80;99.90;;;;;;4913472;29;20493;-72
2022/05/17 06:49:49;;;;;;;15.17;14.27;;;21.70;99.90;;;;;;4913603;29;20453;-72
2022/05/17 06:52:17;;;;;;;15.70;14.90;;;21.90;99.90;;;;;;4916191;29;20476;-73
2022/05/17 06:54:44;;;;;;;15.93;14.97;;;22.10;99.90;;;;;;4916834;29;20481;-73
2022/05/17 06:57:13;;;;;;;16.77;15.70;;;22.20;99.90;;;;;;4916816;29;21093;-73
2022/05/17 06:59:42;;;;;;;15.27;14.57;;;22.10;99.90;;;;;;4916672;29;20450;-73
2022/05/17 07:02:09;;;;;;;15.90;14.87;;;22.10;99.90;;;;;;4916647;29;20465;-72
2022/05/17 07:04:36;;;;;;;15.53;14.40;;;22.20;99.90;;;;;;4916660;29;20462;-72
2022/05/17 07:07:06;;;;;;;17.40;16.10;;;22.30;99.90;;;;;;4916619;29;20496;-71
2022/05/17 07:09:33;;;;;;;16.20;15.23;;;22.50;99.90;;;;;;4916605;29;20458;-74
2022/05/17 07:14:44;;;;;;;16.20;15.30;;;23.20;99.90;;;;;;4916230;29;20847;-73
2022/05/17 07:17:13;;;;;;;14.27;13.57;;;23.50;99.90;;;;;;4915964;29;20498;-74
2022/05/17 07:19:40;;;;;;;17.90;16.57;;;23.70;99.90;;;;;;4916054;29;20931;-72
2022/05/17 07:22:10;;;;;;;16.10;14.87;;;24.00;99.90;;;;;;4916214;29;20465;-72
2022/05/17 07:24:37;;;;;;;15.53;14.50;;;24.50;99.70;;;;;;4916186;29;20497;-72
2022/05/17 07:27:06;;;;;;;17.20;16.13;;;25.00;98.60;;;;;;4916270;29;20490;-73
2022/05/17 07:29:33;;;;;;;16.60;15.80;;;25.20;97.50;;;;;;4916149;29;20963;-74
2022/05/17 07:32:00;;;;;;;16.20;15.10;;;25.40;97.20;;;;;;4915951;29;20572;-74
2022/05/17 07:34:27;;;;;;;18.23;17.13;;;25.50;96.70;;;;;;4916069;29;20461;-71
2022/05/17 07:36:54;;;;;;;18.03;16.70;;;25.60;96.50;;;;;;4916210;29;20969;-75
2022/05/17 07:39:22;;;;;;;19.13;17.80;;;25.60;96.40;;;;;;4916214;29;20458;-74
2022/05/17 07:41:49;;;;;;;17.27;16.07;;;26.10;95.80;;;;;;4916252;29;20469;-76
2022/05/17 07:44:16;;;;;;;22.93;17.73;;;26.60;94.50;;;;;;4916063;29;20465;-75
2022/05/17 07:46:42;;;;;;;16.47;15.47;;;27.00;93.80;;;;;;4915843;29;20458;-74
2022/05/17 07:49:09;;;;;;;16.93;15.73;;;26.90;93.50;;;;;;4915710;29;20458;-75
2022/05/17 07:51:36;;;;;;;15.93;14.83;;;27.00;93.40;;;;;;4915851;29;20454;-77
2022/05/17 07:54:03;;;;;;;17.53;16.27;;;26.90;93.70;;;;;;4916016;29;20518;-74
2022/05/17 07:56:31;;;;;;;17.47;16.40;;;27.40;92.80;;;;;;4915705;29;20446;-75
2022/05/17 07:58:58;;;;;;;17.77;16.60;;;27.80;91.80;;;;;;4915747;29;20459;-73
2022/05/17 08:01:25;;;;;;;17.57;16.50;;;27.50;92.00;;;;;;4915241;29;20465;-73
2022/05/17 08:03:52;;;;;;;18.70;17.50;;;27.70;92.30;;;;;;4915624;29;20458;-72
2022/05/17 08:06:18;;;;;;;16.63;15.63;;;28.50;91.30;;;;;;4915654;29;20465;-72
2022/05/17 08:08:45;;;;;;;18.47;17.30;;;28.80;90.00;;;;;;4915374;29;20501;-72
2022/05/17 08:11:12;;;;;;;16.90;15.90;;;28.70;88.60;;;;;;4915423;29;20489;-74
2022/05/17 08:13:40;;;;;;;15.63;14.70;;;28.70;88.50;;;;;;4915300;29;20451;-73
2022/05/17 08:16:07;;;;;;;17.60;16.30;;;28.40;89.30;;;;;;4915178;29;20458;-73
2022/05/17 08:18:34;;;;;;;16.50;15.70;;;28.10;89.50;;;;;;4915600;29;20458;-74
2022/05/17 08:21:01;;;;;;;15.97;15.07;;;27.60;90.60;;;;;;4915300;29;20462;-76
2022/05/17 08:23:28;;;;;;;15.87;14.77;;;28.20;90.10;;;;;;4915154;29;20857;-76
2022/05/17 08:28:40;;;;;;;15.67;14.83;;;29.20;87.10;;;;;;4915131;29;20481;-77
2022/05/17 08:31:06;;;;;;;16.10;15.10;;;29.60;83.70;;;;;;4915355;29;20471;-76
2022/05/17 08:33:35;;;;;;;16.27;15.17;;;29.90;80.60;;;;;;4915161;29;20487;-78
2022/05/17 08:36:04;;;;;;;15.90;15.10;;;29.90;81.40;;;;;;4915092;29;21023;-78
2022/05/17 08:38:34;;;;;;;15.23;14.50;;;30.40;79.60;;;;;;4915371;29;20450;-80
2022/05/17 08:41:11;;;;;;;14.97;14.27;;;30.50;79.00;;;;;;4915079;29;20867;-78
2022/05/17 08:43:52;;;;;;;16.67;15.73;;;30.90;76.30;;;;;;4914748;29;20828;-77
2022/05/17 08:46:40;;;;;;;17.27;16.03;;;31.50;73.20;;;;;;4914674;29;20825;-77
2022/05/17 08:49:18;;;;;;;15.53;14.73;;;31.20;72.70;;;;;;4914193;29;20498;-76
2022/05/17 08:51:48;;;;;;;15.53;14.83;;;31.00;71.90;;;;;;4914500;29;20671;-76
2022/05/17 08:54:18;;;;;;;15.60;14.80;;;30.90;71.20;;;;;;4914361;29;20463;-77
2022/05/17 08:56:50;;;;;;;16.30;15.40;;;31.10;70.70;;;;;;4914424;29;20802;-75
2022/05/17 08:59:22;;;;;;;16.07;15.20;;;31.80;68.30;;;;;;4914387;29;20952;-76
2022/05/17 09:01:54;;;;;;;15.43;14.47;;;32.50;66.10;;;;;;4914525;29;20461;-77
2022/05/17 09:04:31;;;;;;;16.80;15.77;;;33.10;63.40;;;;;;4914426;29;20458;-76
2022/05/17 09:07:04;;;;;;;15.57;14.83;;;33.30;61.40;;;;;;4913917;29;20954;-76
2022/05/17 09:09:41;;;;;;;15.07;14.27;;;32.90;60.60;;;;;;4914033;29;20500;-76
2022/05/17 09:12:24;;;;;;;15.63;14.63;;;32.90;60.00;;;;;;4913898;29;20461;-76
2022/05/17 09:14:56;;;;;;;16.93;16.03;;;32.60;59.90;;;;;;4913658;29;20944;-77
2022/05/17 09:17:25;;;;;;;14.93;14.23;;;32.00;61.50;;;;;;4911960;29;20486;-76
2022/05/17 09:19:52;;;;;;;14.67;14.03;;;32.00;61.90;;;;;;4913892;29;20514;-76
2022/05/17 09:22:20;;;;;;;15.83;15.03;;;32.60;61.60;;;;;;4913978;29;20519;-75
2022/05/17 09:24:55;;;;;;;14.77;14.10;;;33.30;58.20;;;;;;4913955;29;20455;-77
2022/05/17 09:27:25;;;;;;;15.40;14.60;;;33.20;57.10;;;;;;4913902;29;20466;-77
2022/05/17 09:29:57;;;;;;;15.87;15.07;;;32.80;57.70;;;;;;4913874;29;20458;-76
2022/05/17 09:32:26;;;;;;;15.20;14.40;;;32.60;57.80;;;;;;4913542;29;20474;-77
2022/05/17 09:34:59;;;;;;;16.23;15.27;;;33.10;57.30;;;;;;4913771;29;20458;-76
2022/05/17 09:37:34;;;;;;;15.57;14.67;;;33.10;57.00;;;;;;4913752;29;20545;-77
2022/05/17 09:40:03;;;;;;;16.03;15.23;;;32.90;56.70;;;;;;4913433;29;20549;-76
2022/05/17 09:42:34;;;;;;;15.40;14.60;;;32.60;56.40;;;;;;4913464;29;20461;-77
2022/05/17 09:45:05;;;;;;;16.43;15.53;;;32.80;56.80;;;;;;4914041;29;20450;-76
2022/05/17 09:47:34;;;;;;;15.47;14.63;;;32.50;56.90;;;;;;4914285;29;20453;-76
2022/05/17 09:53:00;;;;;;;15.70;14.87;;;33.70;55.30;;;;;;4914238;29;20445;-77
2022/05/17 09:55:30;;;;;;;15.47;14.73;;;33.40;54.40;;;;;;4913999;29;20461;-77
2022/05/17 09:58:00;;;;;;;15.43;14.63;;;33.20;54.50;;;;;;4913577;29;21008;-78
2022/05/17 10:00:32;;;;;;;16.00;15.20;;;33.30;54.10;;;;;;4913603;29;20462;-78
2022/05/17 10:03:01;;;;;;;15.87;14.93;;;33.10;54.40;;;;;;4913643;29;20874;-78
2022/05/17 10:05:43;;;;;;;16.33;15.43;;;33.80;53.80;;;;;;4913285;29;20458;-78
2022/05/17 10:08:40;;;;;;;16.17;15.27;;;34.70;52.70;;;;;;4913858;29;20458;-79
2022/05/17 10:11:17;;;;;;;15.20;14.40;;;34.40;50.50;;;;;;4913429;29;20470;-77
2022/05/17 10:14:01;;;;;;;15.57;14.73;;;34.20;50.90;;;;;;4913960;29;20493;-78
2022/05/17 10:16:36;;;;;;;15.30;14.60;;;33.70;51.50;;;;;;4915414;29;20727;-77
2022/05/17 10:19:07;;;;;;;16.00;15.00;;;33.20;51.60;;;;;;4915110;29;21033;-77
2022/05/17 10:21:39;;;;;;;14.63;13.97;;;32.80;51.90;;;;;;4915649;29;21051;-76
2022/05/17 10:24:13;;;;;;;15.10;14.40;;;32.60;52.40;;;;;;4915226;29;20450;-76
2022/05/17 10:26:44;;;;;;;15.80;15.10;;;32.80;52.80;;;;;;4918215;29;20518;-77
2022/05/17 10:29:20;;;;;;;16.73;15.60;;;33.70;51.80;;;;;;4922080;29;20643;-78
2022/05/17 10:31:55;;;;;;;16.73;15.93;;;34.10;52.20;;;;;;4924040;29;20482;-78
2022/05/17 10:34:39;;;;;;;15.97;15.30;;;35.00;50.50;;;;;;4921275;29;20449;-79
2022/05/17 10:37:12;;;;;;;17.37;16.37;;;34.90;49.20;;;;;;4926355;29;20461;-79
2022/05/17 10:39:46;;;;;;;16.23;15.53;;;35.80;48.40;;;;;;4929888;29;20493;-80
2022/05/17 10:42:13;;;;;;;16.60;15.80;;;36.10;48.00;;;;;;4919473;29;20814;-79
2022/05/17 10:44:43;;;;;;;16.47;15.77;;;36.40;47.50;;;;;;4918627;29;20457;-78
2022/05/17 10:47:19;;;;;;;18.00;17.20;;;36.00;47.60;;;;;;4917703;29;20458;-79
2022/05/17 10:49:58;;;;;;;17.47;16.33;;;35.60;48.60;;;;;;4916853;29;20450;-79
2022/05/17 10:52:35;;;;;;;17.30;16.40;;;36.00;48.10;;;;;;4916935;29;20465;-78
2022/05/17 10:55:12;;;;;;;17.33;16.17;;;36.60;46.60;;;;;;4917008;29;20795;-79
2022/05/17 10:57:47;;;;;;;17.40;16.60;;;36.60;45.70;;;;;;4916623;29;20513;-79
2022/05/17 11:00:18;;;;;;;16.47;15.60;;;36.30;45.40;;;;;;4914983;29;20456;-79
2022/05/17 11:03:04;;;;;;;16.40;15.80;;;35.70;46.20;;;;;;4916486;29;20457;-79
2022/05/17 11:05:41;;;;;;;17.27;16.27;;;36.10;46.20;;;;;;4916560;29;20806;-77
2022/05/17 11:08:21;;;;;;;17.77;16.97;;;36.30;45.70;;;;;;4916653;29;20446;-78
2022/05/17 11:10:58;;;;;;;16.77;16.07;;;36.70;44.50;;;;;;4916728;29;20454;-78
2022/05/17 11:13:29;;;;;;;16.03;15.13;;;37.00;43.80;;;;;;4916411;29;20461;-76
2022/05/17 11:16:02;;;;;;;15.90;15.10;;;36.40;43.50;;;;;;4914364;29;20458;-77
2022/05/17 11:18:39;;;;;;;16.53;15.40;;;36.00;44.70;;;;;;4916306;29;20490;-77
2022/05/17 11:21:14;;;;;;;17.03;16.07;;;35.80;44.20;;;;;;4932399;29;20476;-77
2022/05/17 11:23:48;;;;;;;15.50;14.90;;;35.30;44.80;;;;;;4935347;29;20453;-76
2022/05/17 11:26:50;;;;;;;15.90;15.07;;;34.00;45.00;;;;;;4935314;29;20464;-77
2022/05/17 11:29:36;;;;;;;16.30;15.30;;;33.70;44.50;;;;;;4935271;29;20544;-79
2022/05/17 11:32:21;;;;;;;15.03;14.33;;;33.40;46.80;;;;;;4935172;29;21003;-80
2022/05/17 11:34:50;;;;;;;16.40;15.60;;;33.90;46.10;;;;;;4935496;29;20449;-78
2022/05/17 11:37:48;;;;;;;16.20;15.30;;;34.10;44.20;;;;;;4934601;29;20460;-80
2022/05/17 11:40:56;;;;;;;14.97;14.27;;;32.50;47.00;;;;;;4902761;29;20473;-80
2022/05/17 11:43:43;;;;;;;15.20;14.10;;;33.00;46.60;;;;;;4935036;29;20458;-78
2022/05/17 11:46:50;;;;;;;15.30;14.50;;;32.30;46.20;;;;;;4934711;29;20465;-80
2022/05/17 11:49:47;;;;;;;13.93;13.37;;;32.30;46.70;;;;;;4935008;29;20482;-81
2022/05/17 11:52:25;;;;;;;14.57;13.90;;;34.20;44.40;;;;;;4935111;29;20822;-79
2022/05/17 11:54:53;;;;;;;14.37;13.87;;;35.60;42.50;;;;;;4935387;29;20525;-78
2022/05/17 11:57:56;;;;;;;14.13;13.53;;;36.10;42.00;;;;;;4935436;29;20456;-77
2022/05/17 12:00:41;;;;;;;14.60;14.00;;;34.80;43.10;;;;;;4931638;29;20461;-79
2022/05/17 12:03:37;;;;;;;14.30;13.70;;;33.60;43.80;;;;;;4934763;29;20454;-79
2022/05/17 12:06:06;;;;;;;14.70;14.10;;;32.80;42.60;;;;;;4934420;29;20951;-80
2022/05/17 12:08:37;;;;;;;14.47;13.87;;;32.80;44.70;;;;;;4934679;29;20462;-80
2022/05/17 12:11:14;;;;;;;14.17;13.47;;;33.20;43.20;;;;;;4934698;29;20449;-80
2022/05/17 12:13:49;;;;;;;15.10;14.30;;;34.60;41.60;;;;;;4934398;29;20464;-78
2022/05/17 12:16:22;;;;;;;14.23;13.63;;;35.10;40.50;;;;;;4934312;29;20655;-78
2022/05/17 12:18:53;;;;;;;14.30;13.70;;;34.70;40.70;;;;;;4934401;29;20532;-80
2022/05/17 12:21:41;;;;;;;14.10;13.50;;;33.90;40.40;;;;;;4934890;29;20458;-81
2022/05/17 12:24:33;;;;;;;13.93;13.33;;;34.60;40.70;;;;;;4934243;29;20537;-79
2022/05/17 12:27:12;;;;;;;14.67;14.00;;;34.50;40.40;;;;;;4931448;29;20476;-80
2022/05/17 12:32:29;;;;;;;13.93;13.43;;;34.70;41.20;;;;;;4914935;29;20469;-78
2022/05/17 12:34:57;;;;;;;13.87;13.37;;;34.00;40.70;;;;;;4915186;29;20454;-81
2022/05/17 12:37:27;;;;;;;14.53;14.03;;;33.00;40.50;;;;;;4915101;29;20494;-80
2022/05/17 12:45:28;;;;;;;14.80;14.20;;;32.60;42.20;;;;;;4914991;29;20441;-81
2022/05/17 12:47:58;;;;;;;14.60;14.10;;;33.90;41.50;;;;;;4914395;29;20458;-79
2022/05/17 12:50:30;;;;;;;15.07;14.37;;;34.30;39.70;;;;;;4914627;29;20446;-80
2022/05/17 12:52:59;;;;;;;15.10;14.20;;;33.50;40.80;;;;;;4915084;29;20602;-79
2022/05/17 12:55:27;;;;;;;14.97;14.33;;;33.30;41.80;;;;;;4914817;29;20481;-80
2022/05/17 12:57:55;;;;;;;14.57;13.97;;;32.90;42.40;;;;;;4914613;29;20458;-80
2022/05/17 13:00:29;;;;;;;14.10;13.60;;;32.70;43.50;;;;;;4914644;29;20498;-79
2022/05/17 13:03:01;;;;;;;15.27;14.67;;;32.70;42.00;;;;;;4914566;29;20663;-79
2022/05/17 13:05:32;;;;;;;14.40;13.90;;;33.10;42.60;;;;;;4914528;29;20925;-78
2022/05/17 13:08:00;;;;;;;15.37;14.77;;;32.40;41.50;;;;;;4914443;29;20457;-80
2022/05/17 13:10:27;;;;;;;14.60;14.10;;;32.50;43.00;;;;;;4914341;29;20479;-79
2022/05/17 13:12:54;;;;;;;14.47;13.87;;;32.80;41.80;;;;;;4914378;29;20458;-79
2022/05/17 13:15:21;;;;;;;14.97;14.17;;;33.20;41.40;;;;;;4914747;29;20454;-80
2022/05/17 13:17:52;;;;;;;15.70;15.10;;;33.90;41.40;;;;;;4914172;29;20457;-80
2022/05/17 13:20:24;;;;;;;15.57;14.93;;;34.50;40.80;;;;;;4914561;29;20497;-82
2022/05/17 13:22:54;;;;;;;15.03;14.33;;;35.00;40.00;;;;;;4913864;29;20873;-78
2022/05/17 13:25:23;;;;;;;15.67;15.00;;;35.00;39.00;;;;;;4914253;29;20492;-80
2022/05/17 13:27:52;;;;;;;14.60;14.10;;;34.50;40.60;;;;;;4919327;29;20794;-81
2022/05/17 13:30:26;;;;;;;15.10;14.50;;;34.50;40.70;;;;;;4933379;29;20453;-81
2022/05/17 13:32:54;;;;;;;16.30;15.40;;;34.60;40.40;;;;;;4932486;29;20898;-81
2022/05/17 13:35:24;;;;;;;14.20;13.70;;;33.90;41.70;;;;;;4933115;29;20465;-82
2022/05/17 13:38:05;;;;;;;13.90;13.30;;;33.10;42.10;;;;;;4933163;29;20450;-81
2022/05/17 13:40:41;;;;;;;14.10;13.50;;;32.80;43.40;;;;;;4933017;29;20858;-81
2022/05/17 13:43:31;;;;;;;14.20;13.70;;;33.00;43.30;;;;;;4932775;29;20750;-81
2022/05/17 13:46:00;;;;;;;13.80;13.30;;;33.60;41.80;;;;;;4932526;29;20905;-83
2022/05/17 13:48:28;;;;;;;14.73;14.00;;;33.00;42.00;;;;;;4932712;29;21018;-80
2022/05/17 13:50:59;;;;;;;13.70;13.20;;;32.60;42.50;;;;;;4932938;29;20461;-82
2022/05/17 13:53:28;;;;;;;13.33;12.83;;;32.20;43.30;;;;;;4932926;29;20460;-81
2022/05/17 13:55:55;;;;;;;13.90;13.40;;;31.50;45.60;;;;;;4932988;29;20544;-81
2022/05/17 13:58:23;;;;;;;14.00;13.40;;;31.30;45.40;;;;;;4933185;29;20465;-81
2022/05/17 14:00:59;;;;;;;13.90;13.20;;;31.20;45.30;;;;;;4935679;29;20461;-80
2022/05/17 14:03:27;;;;;;;14.90;14.20;;;31.50;45.30;;;;;;4937021;29;20544;-81
2022/05/17 14:05:58;;;;;;;14.70;14.10;;;31.40;45.60;;;;;;4936791;29;20453;-82
2022/05/17 14:14:02;;;;;;;14.70;14.20;;;32.10;44.40;;;;;;4946651;29;20984;-82
2022/05/17 14:16:31;;;;;;;15.20;14.60;;;31.80;44.20;;;;;;4944693;28;20452;-81
2022/05/17 14:19:00;;;;;;;15.10;14.40;;;31.80;44.00;;;;;;4945523;28;20700;-79
2022/05/17 14:21:29;;;;;;;14.37;13.77;;;31.40;45.60;;;;;;4946464;29;20818;-80
2022/05/17 14:23:56;;;;;;;14.73;14.13;;;31.00;46.10;;;;;;4945354;29;20446;-79
2022/05/17 14:26:24;;;;;;;14.50;14.00;;;31.40;45.00;;;;;;4945130;28;20858;-81
2022/05/17 14:28:51;;;;;;;13.60;13.20;;;31.60;45.60;;;;;;4944295;29;20437;-80
2022/05/17 14:31:21;;;;;;;13.93;13.40;;;31.50;45.00;;;;;;4945765;29;20521;-82
2022/05/17 14:33:50;;;;;;;14.40;13.70;;;31.20;44.20;;;;;;4944025;28;20476;-81
2022/05/17 14:36:19;;;;;;;14.67;14.07;;;31.40;43.90;;;;;;4946248;29;20460;-83
2022/05/17 14:38:48;;;;;;;14.70;14.10;;;31.70;44.60;;;;;;4945970;29;20445;-77
2022/05/17 14:41:14;;;;;;;14.00;13.40;;;31.20;45.50;;;;;;4944526;29;20453;-80
2022/05/17 14:43:42;;;;;;;13.90;13.40;;;30.70;45.90;;;;;;4944576;28;20456;-81
2022/05/17 14:46:10;;;;;;;14.97;14.33;;;30.20;46.30;;;;;;4945867;29;20441;-81
2022/05/17 14:48:38;;;;;;;13.97;13.47;;;30.20;46.70;;;;;;4943367;29;20544;-79
2022/05/17 14:51:07;;;;;;;14.00;13.50;;;29.70;47.20;;;;;;4946159;29;20512;-80
2022/05/17 14:53:34;;;;;;;13.30;12.70;;;29.50;47.50;;;;;;4942036;29;20446;-80
2022/05/17 14:56:02;;;;;;;14.20;13.60;;;29.30;49.00;;;;;;4944448;28;20448;-80
2022/05/17 14:58:28;;;;;;;13.77;13.17;;;28.90;49.00;;;;;;4946443;29;20804;-80
2022/05/17 15:00:56;;;;;;;13.90;13.30;;;28.80;49.70;;;;;;4944710;28;20481;-81
2022/05/17 15:03:27;;;;;;;13.70;12.97;;;28.80;50.10;;;;;;4935531;29;20552;-81
2022/05/17 15:05:54;;;;;;;13.20;12.70;;;28.60;50.00;;;;;;4935302;29;20826;-81
2022/05/17 15:08:21;;;;;;;13.10;12.50;;;28.70;51.00;;;;;;4935477;29;20470;-81
2022/05/17 15:10:48;;;;;;;13.40;12.60;;;28.60;50.60;;;;;;4935338;29;20449;-81
2022/05/17 15:13:16;;;;;;;12.63;12.10;;;28.30;51.00;;;;;;4934428;29;20466;-82
2022/05/17 15:15:47;;;;;;;13.00;12.40;;;28.10;51.30;;;;;;4935389;29;20454;-80
2022/05/17 15:18:20;;;;;;;13.37;12.87;;;27.90;52.00;;;;;;4935178;29;20944;-82
2022/05/17 15:20:50;;;;;;;12.73;12.23;;;27.90;53.00;;;;;;4935398;29;20533;-82
2022/05/17 15:23:17;;;;;;;13.60;12.90;;;27.90;53.30;;;;;;4935266;29;20996;-81
2022/05/17 15:25:43;;;;;;;11.60;11.20;;;27.90;54.70;;;;;;4934994;29;20490;-81
2022/05/17 15:28:10;;;;;;;13.17;12.67;;;27.80;54.90;;;;;;4935314;29;20449;-81
2022/05/17 15:30:40;;;;;;;12.80;12.30;;;27.40;55.00;;;;;;4934961;29;20469;-82
2022/05/17 15:33:08;;;;;;;13.33;12.83;;;27.20;56.30;;;;;;4935084;29;20485;-80
2022/05/17 15:35:37;;;;;;;13.13;12.63;;;27.00;57.00;;;;;;4936728;29;20477;-84
2022/05/17 15:38:05;;;;;;;13.73;13.03;;;26.70;57.70;;;;;;4935324;29;20465;-80
2022/05/17 15:40:31;;;;;;;13.30;12.50;;;26.40;58.10;;;;;;4934908;29;21003;-80
2022/05/17 15:42:59;;;;;;;13.43;12.80;;;26.30;58.80;;;;;;4934991;29;20612;-80
2022/05/17 15:45:26;;;;;;;12.30;11.80;;;26.30;58.50;;;;;;4934879;29;20461;-80
2022/05/17 15:53:30;;;;;;;12.13;11.50;;;26.00;60.80;;;;;;4935181;29;20842;-81
2022/05/17 15:55:59;;;;;;;12.43;11.70;;;26.00;59.50;;;;;;4935068;29;20465;-82
2022/05/17 15:58:28;;;;;;;12.50;12.00;;;26.10;58.60;;;;;;4934809;29;20509;-81
2022/05/17 16:00:56;;;;;;;13.03;12.53;;;26.10;57.90;;;;;;4934790;29;20485;-81
2022/05/17 16:03:28;;;;;;;12.50;11.90;;;26.00;57.80;;;;;;4934511;29;20578;-81
2022/05/17 16:05:55;;;;;;;11.60;11.10;;;26.00;57.80;;;;;;4934656;29;20505;-81
2022/05/17 16:08:22;;;;;;;11.80;11.30;;;26.10;57.90;;;;;;4934903;29;20472;-82
2022/05/17 16:10:49;;;;;;;11.80;11.30;;;26.20;57.20;;;;;;4935416;29;20453;-82
2022/05/17 16:13:17;;;;;;;11.63;11.13;;;26.20;56.80;;;;;;4935891;29;20464;-82
2022/05/17 16:15:46;;;;;;;12.03;11.40;;;26.20;57.60;;;;;;4935708;29;20513;-82
2022/05/17 16:18:16;;;;;;;12.30;11.60;;;26.30;57.70;;;;;;4937353;29;20726;-82
2022/05/17 16:20:44;;;;;;;12.90;12.10;;;26.40;57.70;;;;;;4934749;29;20782;-81
2022/05/17 16:23:11;;;;;;;11.43;11.03;;;26.40;56.90;;;;;;4934599;29;20461;-81